Time;durP1;ratioP1;P1;durP2;ratioP2;P2;SDS_P1;SDS_P2;PMS_P1;PMS_P2;Temp;Humidity;BMP_temperature;BMP_pressure;BME280_temperature;BME280_humidity;BME280_pressure;Samples;Min_cycle;Max_cycle;Signal;HPM_P1;HPM_P2
2023/10/19 00:01:25;;;;;;;26.08;13.93;;;;;;;12.53;100.00;98024.50;12184624;19;20042;-80
2023/10/19 00:05:32;;;;;;;27.50;14.68;;;;;;;12.53;100.00;98038.31;12194710;19;20006;-80
2023/10/19 00:09:37;;;;;;;29.20;14.65;;;;;;;12.51;100.00;98023.16;12177200;19;20015;-80
2023/10/19 00:13:40;;;;;;;28.20;14.55;;;;;;;12.54;100.00;98028.09;12232776;19;20014;-80
2023/10/19 00:17:44;;;;;;;26.60;15.38;;;;;;;12.54;100.00;98017.03;12247561;19;20018;-81
2023/10/19 00:21:54;;;;;;;28.23;13.98;;;;;;;12.56;100.00;98016.75;12202258;19;20017;-81
2023/10/19 00:26:05;;;;;;;26.88;14.52;;;;;;;12.54;100.00;98009.56;12208970;19;20018;-81
2023/10/19 00:30:08;;;;;;;23.05;13.70;;;;;;;12.56;100.00;98002.94;12211537;19;20023;-81
2023/10/19 00:34:13;;;;;;;;;;;;;;;12.60;100.00;98012.22;12182489;19;21098;-82
2023/10/19 00:38:27;;;;;;;28.45;13.90;;;;;;;12.61;100.00;98011.09;12195838;19;19918;-81
2023/10/19 00:42:31;;;;;;;30.80;15.77;;;;;;;12.62;100.00;98009.97;12174394;19;21469;-79
2023/10/19 00:46:37;;;;;;;29.58;16.00;;;;;;;12.61;100.00;98005.56;12196435;19;20033;-81
2023/10/19 00:50:40;;;;;;;30.50;15.48;;;;;;;12.65;100.00;98004.66;12195831;19;20022;-81
2023/10/19 00:54:55;;;;;;;32.88;16.58;;;;;;;12.67;100.00;97993.28;12178221;19;20023;-82
2023/10/19 00:59:00;;;;;;;29.95;15.70;;;;;;;12.70;100.00;97979.69;12198399;19;20477;-81
2023/10/19 01:03:04;;;;;;;27.70;14.90;;;;;;;12.80;100.00;97972.31;12198022;19;20010;-81
2023/10/19 01:07:12;;;;;;;25.98;13.15;;;;;;;12.87;100.00;97969.94;12175668;19;20426;-80
2023/10/19 01:11:15;;;;;;;23.70;11.68;;;;;;;12.99;100.00;97967.44;12198814;19;20011;-80
2023/10/19 01:19:31;;;;;;;21.60;10.95;;;;;;;13.33;100.00;97955.09;12190768;19;21337;-81
2023/10/19 01:23:35;;;;;;;18.92;9.18;;;;;;;13.49;100.00;97942.53;12192905;19;20011;-81
2023/10/19 01:27:38;;;;;;;15.48;7.70;;;;;;;13.66;100.00;97947.38;12171688;19;20015;-80
2023/10/19 01:31:55;;;;;;;17.83;9.02;;;;;;;13.84;100.00;97945.53;12194605;19;20018;-81
2023/10/19 01:40:20;;;;;;;16.77;8.15;;;;;;;14.05;100.00;97932.75;12167359;19;20106;-82
2023/10/19 01:44:24;;;;;;;15.68;9.38;;;;;;;14.12;100.00;97948.91;12188678;19;20023;-82
2023/10/19 01:48:35;;;;;;;17.35;8.73;;;;;;;14.15;100.00;97948.28;12202422;19;20018;-81
2023/10/19 01:52:38;;;;;;;19.00;10.13;;;;;;;14.11;100.00;97937.03;12171677;19;20010;-81
2023/10/19 01:56:43;;;;;;;19.80;9.52;;;;;;;14.13;100.00;97939.50;12185352;19;20035;-82
2023/10/19 02:00:45;;;;;;;18.90;10.27;;;;;;;14.14;100.00;97932.81;12168811;19;20014;-81
2023/10/19 02:04:51;;;;;;;18.60;10.65;;;;;;;14.16;100.00;97932.47;12191702;19;20386;-82
2023/10/19 02:08:56;;;;;;;18.83;10.18;;;;;;;14.12;100.00;97933.09;12186731;19;20007;-81
2023/10/19 02:12:58;;;;;;;15.73;9.80;;;;;;;14.14;100.00;97928.06;12168225;19;20675;-80
2023/10/19 02:17:09;;;;;;;19.40;10.65;;;;;;;14.16;100.00;97926.94;12188845;19;20022;-80
2023/10/19 02:21:14;;;;;;;18.90;9.90;;;;;;;14.16;100.00;97916.69;12187458;19;20011;-82
2023/10/19 02:25:17;;;;;;;18.20;10.73;;;;;;;14.16;100.00;97919.47;12165134;19;20010;-80
2023/10/19 02:29:19;;;;;;;19.85;11.00;;;;;;;14.06;100.00;97920.53;12188722;19;20027;-83
2023/10/19 02:33:20;;;;;;;22.80;12.30;;;;;;;14.11;100.00;97923.19;12191138;19;21423;-80
2023/10/19 02:37:24;;;;;;;26.33;12.82;;;;;;;14.14;100.00;97918.97;12167329;19;20045;-80
2023/10/19 02:41:28;;;;;;;23.08;12.63;;;;;;;14.14;100.00;97924.50;12188951;19;20010;-80
2023/10/19 02:45:30;;;;;;;26.25;13.52;;;;;;;14.11;100.00;97908.53;12167314;19;20509;-81
2023/10/19 02:49:38;;;;;;;23.42;13.32;;;;;;;14.05;100.00;97904.25;12185778;19;20076;-81
2023/10/19 02:53:40;;;;;;;25.63;13.38;;;;;;;14.05;100.00;97894.00;12186625;19;21388;-80
2023/10/19 02:57:46;;;;;;;28.73;14.10;;;;;;;14.00;100.00;97894.13;12162906;19;20020;-81
2023/10/19 03:01:50;;;;;;;28.13;14.25;;;;;;;14.03;100.00;97884.38;12179290;19;20014;-81
2023/10/19 03:05:55;;;;;;;24.52;13.98;;;;;;;13.99;100.00;97880.63;12177686;19;20013;-80
2023/10/19 03:10:01;;;;;;;22.92;12.82;;;;;;;13.99;100.00;97886.97;12158860;19;20066;-80
2023/10/19 03:14:05;;;;;;;28.55;14.18;;;;;;;13.94;100.00;97898.16;12180386;19;20007;-80
2023/10/19 03:18:07;;;;;;;20.80;12.70;;;;;;;13.89;100.00;97884.47;12186552;19;20390;-80
2023/10/19 03:22:11;;;;;;;25.40;14.63;;;;;;;13.90;100.00;97886.09;12153707;19;20007;-80
2023/10/19 03:26:36;;;;;;;27.35;13.98;;;;;;;13.90;100.00;97888.88;12183280;19;20041;-80
2023/10/19 03:30:39;;;;;;;28.08;14.45;;;;;;;13.91;100.00;97883.00;12179803;19;20464;-79
2023/10/19 03:34:47;;;;;;;28.17;15.68;;;;;;;13.96;100.00;97876.53;12193935;19;20010;-80
2023/10/19 03:38:51;;;;;;;29.73;15.02;;;;;;;13.99;100.00;97873.13;12191600;19;20010;-80
2023/10/19 03:42:54;;;;;;;32.00;14.95;;;;;;;14.01;100.00;97870.00;12168095;19;20041;-80
2023/10/19 03:46:57;;;;;;;32.10;15.95;;;;;;;14.03;100.00;97856.69;12194665;19;20018;-81
2023/10/19 03:51:02;;;;;;;29.65;15.95;;;;;;;13.97;100.00;97853.22;12184931;19;20042;-79
2023/10/19 03:55:28;;;;;;;31.65;16.35;;;;;;;13.95;100.00;97857.44;12171142;19;20006;-81
2023/10/19 03:59:32;;;;;;;32.67;16.40;;;;;;;13.95;100.00;97838.06;12193221;19;20011;-79
2023/10/19 04:03:36;;;;;;;32.53;16.83;;;;;;;13.99;100.00;97828.81;12169515;19;20652;-79
2023/10/19 04:07:38;;;;;;;30.48;16.73;;;;;;;13.96;100.00;97829.47;12186978;19;20059;-79
2023/10/19 04:11:49;;;;;;;31.77;16.38;;;;;;;13.96;100.00;97818.38;12186062;19;20013;-79
2023/10/19 04:15:53;;;;;;;31.27;15.20;;;;;;;13.83;100.00;97822.06;12175895;19;20026;-78
2023/10/19 04:19:55;;;;;;;34.88;17.67;;;;;;;13.71;100.00;97810.78;12198883;19;20374;-80
2023/10/19 04:23:59;;;;;;;36.35;17.92;;;;;;;13.57;100.00;97811.72;12192534;19;20026;-79
2023/10/19 04:28:00;;;;;;;41.72;18.13;;;;;;;13.48;100.00;97824.69;12164319;19;20059;-79
2023/10/19 04:32:06;;;;;;;38.53;16.65;;;;;;;13.38;100.00;97809.16;12190465;19;20038;-80
2023/10/19 04:36:11;;;;;;;39.92;18.38;;;;;;;13.29;100.00;97810.25;12192130;19;20051;-80
2023/10/19 04:40:13;;;;;;;31.70;16.45;;;;;;;13.25;100.00;97810.06;12162688;19;20006;-80
2023/10/19 04:44:15;;;;;;;40.53;17.80;;;;;;;13.18;100.00;97807.72;12182686;19;20110;-80
2023/10/19 04:48:17;;;;;;;38.33;15.75;;;;;;;13.08;100.00;97810.72;12186054;19;20711;-80
2023/10/19 04:52:19;;;;;;;38.87;16.90;;;;;;;13.04;100.00;97820.00;12159666;19;21783;-80
2023/10/19 04:56:21;;;;;;;34.17;15.70;;;;;;;13.03;100.00;97818.34;12187904;19;21210;-79
2023/10/19 05:00:24;;;;;;;47.58;18.35;;;;;;;13.13;100.00;97820.84;12208515;19;20010;-79
2023/10/19 05:04:29;;;;;;;42.22;17.95;;;;;;;13.24;100.00;97825.00;12184300;19;20487;-80
2023/10/19 05:08:32;;;;;;;51.80;18.77;;;;;;;13.37;100.00;97810.28;12208258;19;20030;-80
2023/10/19 05:12:35;;;;;;;41.25;17.73;;;;;;;13.44;100.00;97812.59;12186170;19;20026;-79
2023/10/19 05:16:38;;;;;;;43.65;17.45;;;;;;;13.44;100.00;97802.38;12208988;19;20003;-80
2023/10/19 05:20:40;;;;;;;40.37;16.03;;;;;;;13.44;100.00;97799.59;12207472;19;20018;-82
2023/10/19 05:24:42;;;;;;;40.75;16.13;;;;;;;13.48;100.00;97801.75;12181881;19;20011;-80
2023/10/19 05:28:43;;;;;;;41.55;16.77;;;;;;;13.55;100.00;97802.91;12207505;19;20009;-81
2023/10/19 05:32:46;;;;;;;36.92;17.05;;;;;;;13.55;100.00;97797.38;12206827;19;20007;-81
2023/10/19 05:36:51;;;;;;;28.67;14.50;;;;;;;13.53;100.00;97791.31;12189499;19;20015;-80
2023/10/19 05:40:55;;;;;;;39.65;16.80;;;;;;;13.54;100.00;97801.28;12208712;19;20043;-78
2023/10/19 05:44:59;;;;;;;35.20;15.27;;;;;;;13.60;100.00;97796.44;12205438;19;19998;-78
2023/10/19 05:49:03;;;;;;;39.75;16.98;;;;;;;13.56;100.00;97801.75;12185380;19;20011;-78
2023/10/19 05:53:06;;;;;;;36.63;15.75;;;;;;;13.53;100.00;97799.63;12204301;19;20432;-80
2023/10/19 05:57:09;;;;;;;;;;;;;;;13.47;100.00;97806.44;12212556;19;20114;-83
2023/10/19 06:01:10;;;;;;;33.83;13.95;;;;;;;13.45;100.00;97809.53;12183054;19;19918;-79
2023/10/19 06:05:16;;;;;;;29.52;14.25;;;;;;;13.47;100.00;97825.00;12205528;19;20026;-78
2023/10/19 06:09:19;;;;;;;38.97;15.75;;;;;;;13.46;100.00;97813.13;12205159;19;20019;-80
2023/10/19 06:13:21;;;;;;;38.00;15.63;;;;;;;13.56;100.00;97806.47;12171475;19;20481;-80
2023/10/19 06:17:27;;;;;;;41.45;16.50;;;;;;;13.69;100.00;97808.34;12208866;19;20540;-79
2023/10/19 06:21:31;;;;;;;32.35;13.80;;;;;;;13.85;100.00;97811.50;12189765;19;20011;-79
2023/10/19 06:25:36;;;;;;;33.25;15.10;;;;;;;14.01;100.00;97811.88;12216907;19;20010;-79
2023/10/19 06:29:38;;;;;;;39.20;17.23;;;;;;;14.18;100.00;97824.94;12215875;19;20015;-79
2023/10/19 06:33:41;;;;;;;34.58;15.65;;;;;;;14.28;100.00;97817.16;12213571;19;20014;-80
2023/10/19 06:37:44;;;;;;;41.53;16.33;;;;;;;14.34;100.00;97821.41;12241927;19;20006;-81
2023/10/19 06:41:45;;;;;;;33.05;15.52;;;;;;;14.37;100.00;97822.72;12230268;19;20018;-80
2023/10/19 06:45:47;;;;;;;38.78;16.83;;;;;;;14.43;100.00;97821.44;12195868;19;20011;-81
2023/10/19 06:49:50;;;;;;;37.07;16.97;;;;;;;14.55;100.00;97824.41;12211337;19;20009;-80
2023/10/19 06:53:52;;;;;;;33.90;16.15;;;;;;;14.68;100.00;97817.06;12209599;19;20064;-79
2023/10/19 06:57:55;;;;;;;32.90;15.57;;;;;;;14.85;100.00;97821.81;12186127;19;20011;-79
2023/10/19 07:02:01;;;;;;;27.55;14.27;;;;;;;14.96;100.00;97816.75;12208678;19;20015;-80
2023/10/19 07:06:03;;;;;;;29.27;14.73;;;;;;;15.14;100.00;97817.53;12216092;19;20013;-81
2023/10/19 07:10:13;;;;;;;23.88;14.15;;;;;;;15.27;100.00;97816.56;12198758;19;20002;-80
2023/10/19 07:14:15;;;;;;;22.83;11.87;;;;;;;15.39;100.00;97819.47;12221944;19;20018;-78
2023/10/19 07:18:18;;;;;;;21.05;12.00;;;;;;;15.52;100.00;97809.31;12218042;19;20007;-80
2023/10/19 07:22:22;;;;;;;24.10;12.13;;;;;;;15.62;100.00;97800.63;12190235;19;20014;-77
2023/10/19 07:26:31;;;;;;;21.52;12.25;;;;;;;15.66;100.00;97806.31;12220633;19;20255;-78
2023/10/19 07:30:33;;;;;;;18.27;10.57;;;;;;;15.68;100.00;97802.09;12203243;19;20037;-80
2023/10/19 07:34:35;;;;;;;18.67;11.93;;;;;;;15.76;100.00;97805.97;12222346;19;20118;-78
2023/10/19 07:38:38;;;;;;;17.02;10.73;;;;;;;15.83;100.00;97806.28;12220493;19;20022;-78
2023/10/19 07:42:42;;;;;;;23.02;12.30;;;;;;;15.89;100.00;97796.63;12200292;19;20039;-79
2023/10/19 07:46:44;;;;;;;18.98;11.10;;;;;;;16.00;100.00;97804.56;12217978;19;20020;-79
2023/10/19 07:50:46;;;;;;;17.73;10.60;;;;;;;16.13;100.00;97807.13;12218681;19;20007;-79
2023/10/19 07:54:49;;;;;;;19.20;11.13;;;;;;;16.32;100.00;97809.47;12199302;19;20026;-78
2023/10/19 07:58:51;;;;;;;21.75;11.55;;;;;;;16.43;100.00;97795.19;12217921;19;20433;-79
2023/10/19 08:02:56;;;;;;;21.33;11.30;;;;;;;16.52;100.00;97782.03;12210737;19;20039;-79
2023/10/19 08:06:58;;;;;;;19.27;11.32;;;;;;;16.60;100.00;97795.06;12194948;19;20086;-80
2023/10/19 08:11:00;;;;;;;22.20;10.40;;;;;;;16.61;100.00;97789.16;12217016;19;20026;-79
2023/10/19 08:15:03;;;;;;;;;;;;;;;16.59;100.00;97782.28;12217173;19;20790;-80
2023/10/19 08:19:07;;;;;;;19.08;10.68;;;;;;;16.65;100.00;97800.41;12192408;19;20191;-80
2023/10/19 08:23:09;;;;;;;17.65;10.10;;;;;;;16.66;100.00;97802.03;12208562;19;20584;-80
2023/10/19 08:27:13;;;;;;;19.13;10.43;;;;;;;16.66;100.00;97802.03;12223634;19;20014;-77
2023/10/19 08:31:15;;;;;;;18.35;9.80;;;;;;;16.64;100.00;97805.16;12194929;19;20002;-79
2023/10/19 08:35:24;;;;;;;23.67;10.77;;;;;;;16.65;100.00;97797.63;12214478;19;20014;-79
2023/10/19 08:39:27;;;;;;;16.95;8.10;;;;;;;16.80;100.00;97796.22;12214117;19;20007;-79
2023/10/19 08:43:31;;;;;;;13.73;8.27;;;;;;;17.28;100.00;97787.28;12188441;19;20059;-80
2023/10/19 08:47:36;;;;;;;15.30;7.88;;;;;;;17.65;100.00;97789.34;12213232;19;20135;-79
2023/10/19 08:51:41;;;;;;;11.23;5.85;;;;;;;17.71;100.00;97782.38;12190279;19;20374;-79
2023/10/19 08:55:43;;;;;;;11.38;5.40;;;;;;;17.76;100.00;97768.22;12218466;19;20025;-78
2023/10/19 08:59:50;;;;;;;11.20;5.28;;;;;;;17.87;100.00;97774.97;12213062;19;20026;-78
2023/10/19 09:03:52;;;;;;;9.35;5.00;;;;;;;18.01;100.00;97771.84;12193451;19;20003;-80
2023/10/19 09:07:55;;;;;;;6.90;5.03;;;;;;;18.22;100.00;97772.53;12212929;19;20006;-79
2023/10/19 09:11:56;;;;;;;7.15;3.88;;;;;;;18.50;100.00;97768.19;12218054;19;20497;-80
2023/10/19 09:16:04;;;;;;;6.70;3.38;;;;;;;18.70;100.00;97760.81;12196630;19;20050;-79
2023/10/19 09:20:09;;;;;;;7.30;3.20;;;;;;;18.85;100.00;97758.13;12208078;19;20454;-78
2023/10/19 09:24:11;;;;;;;6.43;3.22;;;;;;;18.94;100.00;97746.81;12207883;19;20015;-80
2023/10/19 09:28:13;;;;;;;8.30;4.10;;;;;;;19.07;100.00;97751.19;12193622;19;20429;-80
2023/10/19 09:32:16;;;;;;;6.03;2.97;;;;;;;19.25;100.00;97745.28;12213136;19;20010;-80
2023/10/19 09:36:20;;;;;;;4.75;3.00;;;;;;;19.53;100.00;97748.00;12209131;19;20071;-80
2023/10/19 09:40:23;;;;;;;6.80;3.17;;;;;;;19.66;100.00;97748.75;12193576;19;20027;-80
2023/10/19 09:44:31;;;;;;;10.85;4.03;;;;;;;19.74;100.00;97736.59;12212579;19;20010;-80
2023/10/19 09:48:39;;;;;;;10.27;3.75;;;;;;;19.75;100.00;97735.41;12192260;19;20002;-80
2023/10/19 09:52:41;;;;;;;7.55;2.42;;;;;;;19.66;100.00;97737.59;12215650;19;20377;-81
2023/10/19 09:56:49;;;;;;;5.95;2.75;;;;;;;19.72;100.00;97739.78;12212185;19;20017;-80
2023/10/19 10:00:57;;;;;;;8.50;3.35;;;;;;;19.89;100.00;97734.97;12199370;19;20006;-80
2023/10/19 10:04:59;;;;;;;7.95;3.03;;;;;;;20.28;100.00;97730.31;12226734;19;20007;-80
2023/10/19 10:09:03;;;;;;;4.88;2.88;;;;;;;20.53;100.00;97730.09;12212524;19;20034;-82
2023/10/19 10:13:23;;;;;;;9.40;3.35;;;;;;;20.76;100.00;97736.56;12191472;19;20010;-82
2023/10/19 10:17:28;;;;;;;5.55;2.90;;;;;;;20.74;100.00;97733.34;12215453;19;20010;-80
2023/10/19 10:21:31;;;;;;;6.95;2.75;;;;;;;20.73;100.00;97730.91;12185494;19;20093;-81
2023/10/19 10:25:34;;;;;;;6.03;2.63;;;;;;;20.94;100.00;97722.97;12210560;19;20008;-81
2023/10/19 10:29:36;;;;;;;7.05;2.47;;;;;;;21.11;100.00;97704.88;12212477;19;20033;-81
2023/10/19 10:33:47;;;;;;;5.23;2.87;;;;;;;21.14;100.00;97710.53;12197037;19;20006;-81
2023/10/19 10:37:54;;;;;;;5.95;2.72;;;;;;;21.19;100.00;97714.25;12213351;19;20006;-81
2023/10/19 10:41:57;;;;;;;4.75;2.67;;;;;;;21.30;100.00;97710.47;12222631;19;20006;-82
2023/10/19 10:46:07;;;;;;;4.43;1.75;;;;;;;21.25;100.00;97707.97;12202554;19;20056;-82
2023/10/19 10:50:10;;;;;;;6.13;2.55;;;;;;;21.30;100.00;97709.66;12215557;19;20584;-82
2023/10/19 10:54:21;;;;;;;5.47;2.40;;;;;;;21.26;100.00;97705.97;12214308;19;20027;-82
2023/10/19 10:58:24;;;;;;;6.90;3.22;;;;;;;21.25;100.00;97710.75;12193983;19;20064;-82
2023/10/19 11:02:25;;;;;;;;;;;;;;;21.16;100.00;97713.00;12216817;19;20054;-82
2023/10/19 11:06:27;;;;;;;5.72;2.97;;;;;;;21.02;100.00;97716.31;12221359;19;19919;-82
2023/10/19 11:10:30;;;;;;;7.13;2.57;;;;;;;20.99;100.00;97711.44;12198491;19;20007;-82
2023/10/19 11:14:34;;;;;;;5.05;2.60;;;;;;;20.88;100.00;97700.06;12212003;19;20050;-82
2023/10/19 11:18:49;;;;;;;7.93;3.60;;;;;;;20.77;100.00;97695.44;12192467;19;20351;-82
2023/10/19 11:22:55;;;;;;;7.03;3.15;;;;;;;20.68;100.00;97690.03;12206918;19;20006;-82
2023/10/19 12:04:21;;;;;;;7.03;4.03;;;;;;;20.48;100.00;97659.22;12224482;19;20664;-81
2023/10/19 12:08:23;;;;;;;9.30;3.97;;;;;;;20.46;100.00;97658.81;12225760;19;20014;-81
2023/10/19 12:12:25;;;;;;;8.68;3.60;;;;;;;20.37;100.00;97655.38;12222923;19;20011;-80
2023/10/19 12:16:27;;;;;;;7.90;4.17;;;;;;;20.24;100.00;97648.31;12205557;19;20015;-81
2023/10/19 12:20:31;;;;;;;7.38;4.10;;;;;;;20.14;100.00;97649.72;12233386;19;20007;-81
2023/10/19 12:24:33;;;;;;;5.50;3.90;;;;;;;20.07;100.00;97640.34;12193771;19;20673;-80
2023/10/19 12:57:41;;;;;;;4.32;2.63;;;;;;;19.08;100.00;97629.97;12256501;19;20011;-81
2023/10/19 13:01:57;;;;;;;6.43;2.97;;;;;;;18.95;100.00;97631.25;12236055;19;20031;-82
2023/10/19 13:06:07;;;;;;;7.90;3.33;;;;;;;18.83;100.00;97634.09;12257617;19;20054;-80
2023/10/19 13:10:09;;;;;;;9.00;3.50;;;;;;;18.84;100.00;97638.50;12238274;19;19999;-79
2023/10/19 13:14:11;;;;;;;8.90;3.70;;;;;;;18.87;100.00;97632.22;12239237;19;20003;-79
2023/10/19 13:18:19;;;;;;;6.50;3.58;;;;;;;18.95;100.00;97631.25;12229428;19;20015;-80
2023/10/19 13:22:21;;;;;;;12.48;4.55;;;;;;;19.01;100.00;97627.00;12203760;19;20769;-80
2023/10/19 13:26:24;;;;;;;7.80;3.95;;;;;;;19.01;100.00;97627.00;12241864;19;20013;-81
2023/10/19 13:30:25;;;;;;;6.82;3.72;;;;;;;18.82;100.00;97635.25;12246940;19;20021;-78
2023/10/19 13:34:27;;;;;;;7.50;4.47;;;;;;;18.65;100.00;97630.81;12203676;19;20006;-80
2023/10/19 13:38:30;;;;;;;8.83;4.40;;;;;;;18.58;100.00;97631.38;12225295;19;20013;-79
2023/10/19 13:42:33;;;;;;;6.47;4.90;;;;;;;18.52;100.00;97630.03;12203867;19;20470;-80
2023/10/19 13:46:35;;;;;;;11.35;5.35;;;;;;;18.40;100.00;97627.28;12238401;19;20022;-80
2023/10/19 13:50:48;;;;;;;8.45;4.95;;;;;;;18.20;100.00;97623.53;12235312;19;20013;-79
2023/10/19 13:54:51;;;;;;;7.70;4.68;;;;;;;18.11;100.00;97634.00;12200602;19;20014;-81
2023/10/19 13:58:53;;;;;;;10.57;5.10;;;;;;;18.05;100.00;97618.69;12223092;19;20014;-81
2023/10/19 14:02:54;;;;;;;9.70;5.32;;;;;;;17.94;100.00;97612.81;12214565;19;20031;-80
2023/10/19 14:06:56;;;;;;;10.73;6.03;;;;;;;17.88;100.00;97603.88;12186219;19;20018;-82
2023/10/19 14:11:02;;;;;;;9.07;5.47;;;;;;;17.81;100.00;97594.50;12206230;19;20027;-80
2023/10/19 14:15:05;;;;;;;9.25;5.00;;;;;;;17.80;100.00;97595.66;12208169;19;20035;-79
2023/10/19 14:19:08;;;;;;;9.43;5.30;;;;;;;17.83;100.00;97578.25;12192569;19;20007;-82
2023/10/19 14:23:13;;;;;;;;;;;;;;;17.85;100.00;97581.50;12192383;19;20007;-81
2023/10/19 14:27:15;;;;;;;8.45;5.45;;;;;;;17.89;100.00;97571.25;12213052;19;19927;-81
2023/10/19 14:31:16;;;;;;;11.07;5.28;;;;;;;17.90;100.00;97568.09;12188345;19;20076;-81
2023/10/19 14:35:20;;;;;;;12.00;6.10;;;;;;;17.86;100.00;97558.84;12209766;19;20362;-82
2023/10/19 14:39:24;;;;;;;8.85;5.45;;;;;;;17.85;100.00;97545.28;12206266;19;20074;-80
2023/10/19 14:43:29;;;;;;;9.65;5.55;;;;;;;17.85;100.00;97542.50;12184456;19;19998;-80
2023/10/19 14:47:31;;;;;;;8.60;5.78;;;;;;;17.86;100.00;97536.56;12207655;19;20064;-80
2023/10/19 14:51:33;;;;;;;11.07;5.18;;;;;;;17.85;100.00;97520.22;12180892;19;20038;-79
2023/10/19 14:55:36;;;;;;;11.45;5.82;;;;;;;17.81;100.00;97502.56;12208813;19;20006;-77
2023/10/19 14:59:37;;;;;;;11.38;6.03;;;;;;;17.75;100.00;97483.28;12207487;19;20019;-80
2023/10/19 15:03:39;;;;;;;10.82;5.32;;;;;;;17.72;100.00;97460.91;12183971;19;20011;-80
2023/10/19 15:07:43;;;;;;;16.92;6.50;;;;;;;17.68;100.00;97443.28;12206114;19;20006;-78
2023/10/19 15:11:45;;;;;;;10.57;6.25;;;;;;;17.62;100.00;97431.59;12206904;19;20339;-80
2023/10/19 15:15:47;;;;;;;14.65;6.82;;;;;;;17.59;100.00;97418.38;12203687;19;20018;-79
2023/10/19 15:19:52;;;;;;;9.77;5.95;;;;;;;17.63;100.00;97426.81;12187095;19;20006;-80
2023/10/19 15:23:54;;;;;;;11.93;6.30;;;;;;;17.68;100.00;97421.81;12204458;19;20018;-77
2023/10/19 15:27:55;;;;;;;9.82;6.45;;;;;;;17.76;100.00;97411.69;12191320;19;20006;-80
2023/10/19 15:31:57;;;;;;;6.47;4.72;;;;;;;17.86;100.00;97416.75;12218786;19;20014;-79
2023/10/19 15:35:59;;;;;;;9.43;5.20;;;;;;;18.00;100.00;97405.22;12214156;19;20010;-79
2023/10/19 15:40:03;;;;;;;8.85;5.80;;;;;;;18.11;100.00;97409.06;12198915;19;20007;-79
2023/10/19 15:44:05;;;;;;;7.18;5.18;;;;;;;18.14;100.00;97391.63;12221254;19;20027;-79
2023/10/19 15:48:11;;;;;;;8.45;4.35;;;;;;;18.06;100.00;97370.34;12227235;19;20011;-79
2023/10/19 15:52:13;;;;;;;9.68;4.53;;;;;;;17.98;100.00;97355.41;12210278;19;20007;-79
2023/10/19 15:56:17;;;;;;;6.75;3.83;;;;;;;17.88;100.00;97346.78;12227596;19;20010;-80
2023/10/19 16:00:21;;;;;;;8.57;4.18;;;;;;;17.71;100.00;97345.91;12216931;19;20006;-79
2023/10/19 16:04:23;;;;;;;9.25;3.65;;;;;;;17.51;100.00;97358.06;12194499;19;19999;-78
2023/10/19 16:08:25;;;;;;;7.22;3.50;;;;;;;17.42;100.00;97363.78;12215981;19;20010;-79
2023/10/19 16:12:27;;;;;;;8.32;3.83;;;;;;;17.35;100.00;97376.72;12217553;19;20007;-78
2023/10/19 16:16:29;;;;;;;9.38;4.15;;;;;;;17.19;100.00;97373.84;12192295;19;20015;-78
2023/10/19 16:20:31;;;;;;;8.27;3.78;;;;;;;16.95;100.00;97381.09;12216096;19;20031;-78
2023/10/19 16:24:33;;;;;;;7.37;3.63;;;;;;;16.79;100.00;97386.56;12213340;19;20011;-78
2023/10/19 16:28:35;;;;;;;8.57;4.13;;;;;;;16.65;100.00;97411.13;12191850;19;20003;-78
2023/10/19 16:32:39;;;;;;;10.07;4.55;;;;;;;16.50;100.00;97400.69;12211256;19;20014;-79
2023/10/19 16:36:42;;;;;;;8.85;4.22;;;;;;;16.36;100.00;97406.63;12213658;19;20022;-81
2023/10/19 16:40:44;;;;;;;9.95;5.40;;;;;;;16.16;100.00;97386.91;12197585;19;20432;-80
2023/10/19 16:44:46;;;;;;;12.77;6.70;;;;;;;16.04;100.00;97373.00;12214872;19;20019;-79
2023/10/19 16:48:48;;;;;;;8.53;4.63;;;;;;;15.90;100.00;97394.72;12194534;19;20027;-80
2023/10/19 16:52:50;;;;;;;11.15;5.85;;;;;;;15.79;100.00;97408.22;12211741;19;20027;-79
2023/10/19 16:56:52;;;;;;;10.27;5.17;;;;;;;15.71;100.00;97398.84;12213187;19;20010;-78
2023/10/19 17:00:54;;;;;;;7.20;4.30;;;;;;;15.66;100.00;97401.00;12196214;19;20013;-79
2023/10/19 17:04:59;;;;;;;10.52;4.70;;;;;;;15.68;100.00;97418.16;12215939;19;20042;-79
2023/10/19 17:09:13;;;;;;;10.60;4.93;;;;;;;15.71;100.00;97414.69;12214577;19;20011;-79
2023/10/19 17:13:15;;;;;;;10.48;5.30;;;;;;;15.72;100.00;97408.00;12192303;19;20742;-79
2023/10/19 17:17:17;;;;;;;7.20;4.20;;;;;;;15.70;100.00;97418.63;12210338;19;20046;-80
2023/10/19 17:21:22;;;;;;;9.77;5.32;;;;;;;15.65;100.00;97411.28;12209512;19;20072;-79
2023/10/19 17:25:24;;;;;;;;;;;;;;;15.60;100.00;97397.63;12191380;19;20018;-79
2023/10/19 17:29:27;;;;;;;12.90;6.65;;;;;;;15.60;100.00;97385.72;12208175;19;19932;-80
2023/10/19 17:33:31;;;;;;;11.02;5.07;;;;;;;15.61;100.00;97409.53;12213776;19;20011;-79
2023/10/19 17:37:33;;;;;;;12.82;5.57;;;;;;;15.63;100.00;97423.88;12187866;19;20032;-79
2023/10/19 17:41:35;;;;;;;12.10;6.43;;;;;;;15.58;100.00;97424.91;12214849;19;20013;-80
2023/10/19 17:45:37;;;;;;;9.75;5.10;;;;;;;15.55;100.00;97405.34;12221833;19;20018;-80
2023/10/19 17:49:38;;;;;;;12.15;5.38;;;;;;;15.54;100.00;97404.53;12192676;19;20013;-78
2023/10/19 17:53:40;;;;;;;8.30;4.50;;;;;;;15.53;100.00;97413.19;12214565;19;20461;-77
2023/10/19 17:57:45;;;;;;;11.52;4.85;;;;;;;15.49;100.00;97402.78;12204980;19;20027;-79
2023/10/19 18:01:47;;;;;;;9.50;5.00;;;;;;;15.48;100.00;97384.50;12188957;19;20006;-79
2023/10/19 18:05:49;;;;;;;12.82;5.05;;;;;;;15.46;100.00;97392.34;12212537;19;20041;-79
2023/10/19 18:09:52;;;;;;;8.65;4.90;;;;;;;15.46;100.00;97391.53;12187815;19;20011;-79
2023/10/19 18:13:55;;;;;;;;;;;;;;;15.46;100.00;97394.31;12215388;19;20013;-78
2023/10/19 18:17:57;;;;;;;7.57;4.35;;;;;;;15.48;100.00;97403.13;12205344;19;19914;-79
2023/10/19 18:21:59;;;;;;;10.20;4.68;;;;;;;15.53;100.00;97399.31;12185022;19;20078;-79
2023/10/19 18:26:01;;;;;;;9.73;4.88;;;;;;;15.56;100.00;97396.69;12207231;19;20003;-80
2023/10/19 18:30:04;;;;;;;8.20;4.45;;;;;;;15.58;100.00;97399.09;12204165;19;20025;-79
2023/10/19 18:34:06;;;;;;;10.82;4.68;;;;;;;15.55;100.00;97377.59;12190199;19;20020;-79
2023/10/19 18:38:08;;;;;;;8.30;4.90;;;;;;;15.58;100.00;97385.22;12207003;19;20003;-80
2023/10/19 18:42:11;;;;;;;14.90;4.25;;;;;;;15.61;100.00;97359.56;12207619;19;20029;-79
2023/10/19 18:46:13;;;;;;;;;;;;;;;15.62;100.00;97350.09;12186939;19;20011;-79
2023/10/19 18:50:14;;;;;;;10.52;5.03;;;;;;;15.62;100.00;97344.56;12207337;19;19931;-79
2023/10/19 18:54:35;;;;;;;11.60;5.07;;;;;;;15.62;100.00;97341.78;12205185;19;20034;-79
2023/10/19 18:58:37;;;;;;;10.20;4.38;;;;;;;15.61;100.00;97329.03;12188347;19;20006;-79
2023/10/19 19:02:41;;;;;;;6.35;3.97;;;;;;;15.58;100.00;97327.75;12221577;19;20011;-78
2023/10/19 19:06:43;;;;;;;6.28;3.72;;;;;;;15.58;100.00;97332.50;12225762;19;20027;-80
2023/10/19 19:10:45;;;;;;;11.43;3.83;;;;;;;15.60;100.00;97336.56;12210262;19;20026;-79
2023/10/19 19:14:47;;;;;;;6.53;4.07;;;;;;;15.62;100.00;97325.13;12218025;19;20006;-78
2023/10/19 19:18:49;;;;;;;13.48;4.15;;;;;;;15.61;100.00;97312.38;12203740;19;20007;-78
2023/10/19 19:22:52;;;;;;;7.05;4.30;;;;;;;15.62;100.00;97319.56;12223740;19;20477;-80
2023/10/19 19:26:54;;;;;;;7.03;3.88;;;;;;;15.59;100.00;97323.03;12221750;19;20509;-79
2023/10/19 19:30:56;;;;;;;8.32;3.75;;;;;;;15.61;100.00;97306.81;12199488;19;20020;-79
2023/10/19 19:34:58;;;;;;;11.32;4.28;;;;;;;15.60;100.00;97303.25;12223535;19;20011;-79
2023/10/19 19:39:01;;;;;;;9.88;4.85;;;;;;;15.63;100.00;97312.84;12223469;19;20063;-78
2023/10/19 19:43:03;;;;;;;7.50;4.78;;;;;;;15.66;100.00;97301.06;12202737;19;20010;-81
2023/10/19 19:47:06;;;;;;;10.57;5.15;;;;;;;15.66;100.00;97298.28;12220079;19;20010;-80